الصفحة الرئيسية
METAR-TAF:

METAR-TAF

مطار :

روسو, دومينيكا

دائرة عرض: 15-32N, خط طول: 061-24W, ارتفاع: 5 متر

مراقبة الطقس الحالي

تاريخ ووقت الإصدار 1ساعة و 29 دقيقة قبل الساعة 13:00UTC
ريح 3 عقدة من الشمال/الشمال الغربي
درجة الحرارة 29°درجة مئوية
الرطوبة 66%
ضغط 1014 hPa
الرؤية 10 كم أو أكثر
غيوم قليلة على ارتفاع 2200 قدم

METAR: TDCF 251300Z 33003KT 9999 FEW022 29/22 Q1014

زمن: 10:29 (14:29 UTC)


TAF: مفقودة

أرصاد الطقس والتوقعات من أكثر من 4000 مطار (تقارير الطقس للمطار METAR والتنبؤ بالطقس بالمطارTAF).

المحطات المتاحة هي النقط الصفراء والحمراء على الخريطة.

حرك المؤشر فوق النقطة لمعرفة اسم المحطة.

ثم انقر لمعرفة أرصاد وتوقعات الطقس.

لتغيير الخارطة: اضغط على الأزرار الخضراء مع رمز الصليب الأسود للتكبير. على الزر الأخضر مع شرطة للتصغير، أو على الأسهم الخضراء للخرائط المجاورة.


METAR-TAF: